sensor_id;sensor_type;location;lat;lon;timestamp;temperature;humidity
47514;DHT22;33951;51.988;5.910;2023-08-01T04:00:43;15.90;99.90
47514;DHT22;33951;51.988;5.910;2023-08-01T04:03:38;15.90;99.90
47514;DHT22;33951;51.988;5.910;2023-08-01T04:06:30;15.80;99.90
47514;DHT22;33951;51.988;5.910;2023-08-01T04:09:26;15.90;99.90
47514;DHT22;33951;51.988;5.910;2023-08-01T04:12:31;15.90;99.90
47514;DHT22;33951;51.988;5.910;2023-08-01T04:15:02;15.90;99.90
47514;DHT22;33951;51.988;5.910;2023-08-01T04:17:54;15.90;99.90
47514;DHT22;33951;51.988;5.910;2023-08-01T04:24:18;15.80;99.90
47514;DHT22;33951;51.988;5.910;2023-08-01T04:26:57;15.90;99.90
47514;DHT22;33951;51.988;5.910;2023-08-01T04:29:30;15.80;99.90
47514;DHT22;33951;51.988;5.910;2023-08-01T04:32:13;15.80;99.90
47514;DHT22;33951;51.988;5.910;2023-08-01T04:35:09;15.90;99.90
47514;DHT22;33951;51.988;5.910;2023-08-01T04:37:35;15.90;99.90
47514;DHT22;33951;51.988;5.910;2023-08-01T04:40:26;15.90;99.90
47514;DHT22;33951;51.988;5.910;2023-08-01T04:43:21;15.80;99.90
47514;DHT22;33951;51.988;5.910;2023-08-01T04:46:08;15.90;99.90
47514;DHT22;33951;51.988;5.910;2023-08-01T04:48:37;15.80;99.90
47514;DHT22;33951;51.988;5.910;2023-08-01T04:54:25;15.90;99.90
47514;DHT22;33951;51.988;5.910;2023-08-01T04:57:14;15.90;99.90
47514;DHT22;33951;51.988;5.910;2023-08-01T04:59:55;15.90;99.90
47514;DHT22;33951;51.988;5.910;2023-08-01T05:02:46;15.80;99.90
47514;DHT22;33951;51.988;5.910;2023-08-01T05:05:17;15.90;99.90
47514;DHT22;33951;51.988;5.910;2023-08-01T05:08:03;15.80;99.90
47514;DHT22;33951;51.988;5.910;2023-08-01T05:10:35;15.80;99.90
47514;DHT22;33951;51.988;5.910;2023-08-01T05:13:03;15.80;99.90
47514;DHT22;33951;51.988;5.910;2023-08-01T05:15:34;15.80;99.90
47514;DHT22;33951;51.988;5.910;2023-08-01T05:18:02;15.90;99.90
47514;DHT22;33951;51.988;5.910;2023-08-01T05:27:32;16.00;99.90
47514;DHT22;33951;51.988;5.910;2023-08-01T05:30:58;16.00;99.90
47514;DHT22;33951;51.988;5.910;2023-08-01T05:33:58;16.00;99.90
47514;DHT22;33951;51.988;5.910;2023-08-01T05:36:36;16.10;99.90
47514;DHT22;33951;51.988;5.910;2023-08-01T05:42:15;16.10;99.90
47514;DHT22;33951;51.988;5.910;2023-08-01T05:45:08;16.20;99.90
47514;DHT22;33951;51.988;5.910;2023-08-01T05:47:50;16.20;99.90
47514;DHT22;33951;51.988;5.910;2023-08-01T05:50:30;16.30;99.90
47514;DHT22;33951;51.988;5.910;2023-08-01T05:53:04;16.40;99.90
47514;DHT22;33951;51.988;5.910;2023-08-01T05:55:33;16.30;99.90
47514;DHT22;33951;51.988;5.910;2023-08-01T05:58:36;16.40;99.90
47514;DHT22;33951;51.988;5.910;2023-08-01T06:01:11;16.30;99.90
47514;DHT22;33951;51.988;5.910;2023-08-01T06:03:46;16.40;99.90
47514;DHT22;33951;51.988;5.910;2023-08-01T06:06:30;16.50;99.90
47514;DHT22;33951;51.988;5.910;2023-08-01T06:09:11;16.50;99.90
47514;DHT22;33951;51.988;5.910;2023-08-01T06:11:40;16.60;99.90
47514;DHT22;33951;51.988;5.910;2023-08-01T06:14:15;16.60;99.90
47514;DHT22;33951;51.988;5.910;2023-08-01T06:16:57;16.50;99.90
47514;DHT22;33951;51.988;5.910;2023-08-01T06:20:15;16.40;99.90
47514;DHT22;33951;51.988;5.910;2023-08-01T06:22:46;16.40;99.90
47514;DHT22;33951;51.988;5.910;2023-08-01T06:25:12;16.40;99.90
47514;DHT22;33951;51.988;5.910;2023-08-01T06:27:41;16.50;99.90
47514;DHT22;33951;51.988;5.910;2023-08-01T06:30:13;16.60;99.90
47514;DHT22;33951;51.988;5.910;2023-08-01T06:33:04;16.60;99.90
47514;DHT22;33951;51.988;5.910;2023-08-01T06:35:56;16.50;99.90
47514;DHT22;33951;51.988;5.910;2023-08-01T06:38:25;16.40;99.90
47514;DHT22;33951;51.988;5.910;2023-08-01T06:40:51;16.40;99.90
47514;DHT22;33951;51.988;5.910;2023-08-01T06:43:19;16.50;99.90
47514;DHT22;33951;51.988;5.910;2023-08-01T06:45:45;16.50;99.90
47514;DHT22;33951;51.988;5.910;2023-08-01T06:48:16;16.70;99.90
47514;DHT22;33951;51.988;5.910;2023-08-01T06:50:42;16.80;99.90
47514;DHT22;33951;51.988;5.910;2023-08-01T06:53:12;16.90;99.90
47514;DHT22;33951;51.988;5.910;2023-08-01T06:55:49;17.00;99.90
47514;DHT22;33951;51.988;5.910;2023-08-01T06:58:15;17.00;99.90
47514;DHT22;33951;51.988;5.910;2023-08-01T07:00:47;17.00;99.90
47514;DHT22;33951;51.988;5.910;2023-08-01T07:03:16;17.00;99.90
47514;DHT22;33951;51.988;5.910;2023-08-01T07:05:49;17.10;99.90
47514;DHT22;33951;51.988;5.910;2023-08-01T07:08:17;17.10;99.90
47514;DHT22;33951;51.988;5.910;2023-08-01T07:10:48;16.90;99.90
47514;DHT22;33951;51.988;5.910;2023-08-01T07:13:31;17.10;99.90
47514;DHT22;33951;51.988;5.910;2023-08-01T07:16:03;17.20;99.90
47514;DHT22;33951;51.988;5.910;2023-08-01T07:18:31;17.10;99.90
47514;DHT22;33951;51.988;5.910;2023-08-01T07:21:04;17.10;99.90
47514;DHT22;33951;51.988;5.910;2023-08-01T07:23:31;17.20;99.90
47514;DHT22;33951;51.988;5.910;2023-08-01T07:25:57;17.20;99.90
47514;DHT22;33951;51.988;5.910;2023-08-01T07:28:22;17.30;99.90
47514;DHT22;33951;51.988;5.910;2023-08-01T07:30:48;17.30;99.90
47514;DHT22;33951;51.988;5.910;2023-08-01T07:33:14;17.20;99.90
47514;DHT22;33951;51.988;5.910;2023-08-01T07:35:39;17.20;99.90
47514;DHT22;33951;51.988;5.910;2023-08-01T07:38:05;17.20;99.90
47514;DHT22;33951;51.988;5.910;2023-08-01T07:40:31;17.30;99.90
47514;DHT22;33951;51.988;5.910;2023-08-01T07:42:56;17.20;99.90
47514;DHT22;33951;51.988;5.910;2023-08-01T07:45:25;17.30;99.90
47514;DHT22;33951;51.988;5.910;2023-08-01T07:47:50;17.40;99.90
47514;DHT22;33951;51.988;5.910;2023-08-01T07:50:18;17.40;99.90
47514;DHT22;33951;51.988;5.910;2023-08-01T07:52:44;17.40;99.90
47514;DHT22;33951;51.988;5.910;2023-08-01T07:55:13;17.40;99.90
47514;DHT22;33951;51.988;5.910;2023-08-01T07:57:39;17.50;99.90
47514;DHT22;33951;51.988;5.910;2023-08-01T08:00:05;17.60;99.90
47514;DHT22;33951;51.988;5.910;2023-08-01T08:02:31;17.70;99.90
47514;DHT22;33951;51.988;5.910;2023-08-01T08:04:57;17.70;99.90
47514;DHT22;33951;51.988;5.910;2023-08-01T08:07:22;17.70;99.90
47514;DHT22;33951;51.988;5.910;2023-08-01T08:09:48;17.70;99.90
47514;DHT22;33951;51.988;5.910;2023-08-01T08:12:14;17.70;99.90
47514;DHT22;33951;51.988;5.910;2023-08-01T08:14:39;17.80;99.90
47514;DHT22;33951;51.988;5.910;2023-08-01T08:17:05;17.80;99.90
47514;DHT22;33951;51.988;5.910;2023-08-01T08:19:31;17.80;99.90
47514;DHT22;33951;51.988;5.910;2023-08-01T08:21:56;17.70;99.90
47514;DHT22;33951;51.988;5.910;2023-08-01T08:24:22;17.50;99.90
47514;DHT22;33951;51.988;5.910;2023-08-01T08:26:48;17.40;99.90
47514;DHT22;33951;51.988;5.910;2023-08-01T08:29:13;17.20;99.90
47514;DHT22;33951;51.988;5.910;2023-08-01T08:31:39;17.10;99.90
47514;DHT22;33951;51.988;5.910;2023-08-01T08:34:05;16.90;99.90
47514;DHT22;33951;51.988;5.910;2023-08-01T08:36:31;16.70;99.90
47514;DHT22;33951;51.988;5.910;2023-08-01T08:38:56;16.80;99.90
47514;DHT22;33951;51.988;5.910;2023-08-01T08:41:26;16.90;99.90
47514;DHT22;33951;51.988;5.910;2023-08-01T08:43:56;17.10;99.90
47514;DHT22;33951;51.988;5.910;2023-08-01T08:46:26;17.10;99.90
47514;DHT22;33951;51.988;5.910;2023-08-01T08:48:54;17.20;99.90
47514;DHT22;33951;51.988;5.910;2023-08-01T08:51:22;17.20;99.90
47514;DHT22;33951;51.988;5.910;2023-08-01T08:53:53;17.40;99.90
47514;DHT22;33951;51.988;5.910;2023-08-01T08:56:20;17.50;99.90
47514;DHT22;33951;51.988;5.910;2023-08-01T08:58:46;17.60;99.90
47514;DHT22;33951;51.988;5.910;2023-08-01T09:01:13;17.50;99.90
47514;DHT22;33951;51.988;5.910;2023-08-01T09:03:39;17.60;99.90
47514;DHT22;33951;51.988;5.910;2023-08-01T09:06:09;17.80;99.90
47514;DHT22;33951;51.988;5.910;2023-08-01T09:08:36;17.90;99.90
47514;DHT22;33951;51.988;5.910;2023-08-01T09:11:04;17.90;99.90
47514;DHT22;33951;51.988;5.910;2023-08-01T09:13:33;18.00;99.90
47514;DHT22;33951;51.988;5.910;2023-08-01T09:16:01;18.00;99.90
47514;DHT22;33951;51.988;5.910;2023-08-01T09:18:27;18.00;99.90
47514;DHT22;33951;51.988;5.910;2023-08-01T09:20:53;18.10;99.90
47514;DHT22;33951;51.988;5.910;2023-08-01T09:23:19;18.20;99.90
47514;DHT22;33951;51.988;5.910;2023-08-01T09:25:47;18.30;99.90
47514;DHT22;33951;51.988;5.910;2023-08-01T09:28:21;18.50;99.90
47514;DHT22;33951;51.988;5.910;2023-08-01T09:30:51;18.70;99.90
47514;DHT22;33951;51.988;5.910;2023-08-01T09:33:19;18.70;99.90
47514;DHT22;33951;51.988;5.910;2023-08-01T09:35:45;18.60;99.90
47514;DHT22;33951;51.988;5.910;2023-08-01T09:38:15;18.50;99.90
47514;DHT22;33951;51.988;5.910;2023-08-01T09:40:42;18.40;99.90
47514;DHT22;33951;51.988;5.910;2023-08-01T09:43:09;18.30;99.90
47514;DHT22;33951;51.988;5.910;2023-08-01T09:45:34;18.40;99.90
47514;DHT22;33951;51.988;5.910;2023-08-01T09:48:01;18.30;99.90
47514;DHT22;33951;51.988;5.910;2023-08-01T09:50:27;18.30;99.90
47514;DHT22;33951;51.988;5.910;2023-08-01T09:52:53;18.30;99.90
47514;DHT22;33951;51.988;5.910;2023-08-01T09:55:32;18.30;99.90
47514;DHT22;33951;51.988;5.910;2023-08-01T09:57:58;18.40;99.90
47514;DHT22;33951;51.988;5.910;2023-08-01T10:00:28;18.50;99.90
47514;DHT22;33951;51.988;5.910;2023-08-01T10:02:58;18.40;99.90
47514;DHT22;33951;51.988;5.910;2023-08-01T10:05:31;18.40;99.90
47514;DHT22;33951;51.988;5.910;2023-08-01T10:08:00;18.50;99.90
47514;DHT22;33951;51.988;5.910;2023-08-01T10:10:27;18.80;99.90
47514;DHT22;33951;51.988;5.910;2023-08-01T10:13:01;18.80;99.90
47514;DHT22;33951;51.988;5.910;2023-08-01T10:15:28;18.80;99.90
47514;DHT22;33951;51.988;5.910;2023-08-01T10:17:54;18.90;99.90
47514;DHT22;33951;51.988;5.910;2023-08-01T10:20:23;19.00;99.90
47514;DHT22;33951;51.988;5.910;2023-08-01T10:22:50;19.10;99.90
47514;DHT22;33951;51.988;5.910;2023-08-01T10:25:17;19.20;99.90
47514;DHT22;33951;51.988;5.910;2023-08-01T10:27:44;19.40;99.90
47514;DHT22;33951;51.988;5.910;2023-08-01T10:30:10;19.60;99.90
47514;DHT22;33951;51.988;5.910;2023-08-01T10:32:39;19.60;99.90
47514;DHT22;33951;51.988;5.910;2023-08-01T10:35:06;19.50;99.90
47514;DHT22;33951;51.988;5.910;2023-08-01T10:38:08;19.70;99.90
47514;DHT22;33951;51.988;5.910;2023-08-01T10:43:03;19.70;99.90
47514;DHT22;33951;51.988;5.910;2023-08-01T10:45:29;19.70;99.90
47514;DHT22;33951;51.988;5.910;2023-08-01T10:48:08;19.90;99.90
47514;DHT22;33951;51.988;5.910;2023-08-01T10:50:37;19.90;99.90
47514;DHT22;33951;51.988;5.910;2023-08-01T10:53:05;20.10;99.90
47514;DHT22;33951;51.988;5.910;2023-08-01T10:55:45;20.10;99.90
47514;DHT22;33951;51.988;5.910;2023-08-01T10:58:11;20.10;99.90
47514;DHT22;33951;51.988;5.910;2023-08-01T11:00:37;20.00;99.90
47514;DHT22;33951;51.988;5.910;2023-08-01T11:03:03;19.80;99.90
47514;DHT22;33951;51.988;5.910;2023-08-01T11:05:29;19.80;99.90
47514;DHT22;33951;51.988;5.910;2023-08-01T11:07:56;19.70;99.90
47514;DHT22;33951;51.988;5.910;2023-08-01T11:10:27;19.80;99.90
47514;DHT22;33951;51.988;5.910;2023-08-01T11:12:53;19.90;99.90
47514;DHT22;33951;51.988;5.910;2023-08-01T11:15:19;19.90;99.90
47514;DHT22;33951;51.988;5.910;2023-08-01T11:17:53;19.80;99.90
47514;DHT22;33951;51.988;5.910;2023-08-01T11:20:24;19.80;99.90
47514;DHT22;33951;51.988;5.910;2023-08-01T11:22:58;20.00;99.90
47514;DHT22;33951;51.988;5.910;2023-08-01T11:25:37;20.20;99.90
47514;DHT22;33951;51.988;5.910;2023-08-01T11:28:15;20.40;99.90
47514;DHT22;33951;51.988;5.910;2023-08-01T11:30:41;20.70;99.90
47514;DHT22;33951;51.988;5.910;2023-08-01T11:33:20;20.80;99.90
47514;DHT22;33951;51.988;5.910;2023-08-01T11:35:56;21.00;99.90
47514;DHT22;33951;51.988;5.910;2023-08-01T11:38:23;21.00;99.90
47514;DHT22;33951;51.988;5.910;2023-08-01T11:40:51;21.10;99.90
47514;DHT22;33951;51.988;5.910;2023-08-01T11:43:17;21.20;99.90
47514;DHT22;33951;51.988;5.910;2023-08-01T11:48:47;21.00;99.90
47514;DHT22;33951;51.988;5.910;2023-08-01T11:51:16;20.90;99.90
47514;DHT22;33951;51.988;5.910;2023-08-01T11:54:03;21.00;99.90
47514;DHT22;33951;51.988;5.910;2023-08-01T11:56:30;20.90;99.90
47514;DHT22;33951;51.988;5.910;2023-08-01T11:58:56;20.70;99.90
47514;DHT22;33951;51.988;5.910;2023-08-01T12:01:22;20.80;99.90
47514;DHT22;33951;51.988;5.910;2023-08-01T12:03:49;20.90;99.90
47514;DHT22;33951;51.988;5.910;2023-08-01T12:06:17;20.70;99.90
47514;DHT22;33951;51.988;5.910;2023-08-01T12:08:44;20.80;99.90
47514;DHT22;33951;51.988;5.910;2023-08-01T12:11:21;20.90;99.90
47514;DHT22;33951;51.988;5.910;2023-08-01T12:16:46;20.90;99.90
47514;DHT22;33951;51.988;5.910;2023-08-01T12:19:21;20.50;99.90
47514;DHT22;33951;51.988;5.910;2023-08-01T12:21:48;20.30;99.90
47514;DHT22;33951;51.988;5.910;2023-08-01T12:24:14;20.20;99.90
47514;DHT22;33951;51.988;5.910;2023-08-01T12:26:40;19.90;99.90
47514;DHT22;33951;51.988;5.910;2023-08-01T12:29:08;19.70;99.90
47514;DHT22;33951;51.988;5.910;2023-08-01T12:31:37;19.60;99.90
47514;DHT22;33951;51.988;5.910;2023-08-01T12:34:03;19.50;99.90
47514;DHT22;33951;51.988;5.910;2023-08-01T12:36:29;19.40;99.90
47514;DHT22;33951;51.988;5.910;2023-08-01T12:38:54;19.30;99.90
47514;DHT22;33951;51.988;5.910;2023-08-01T12:41:20;19.20;99.90
47514;DHT22;33951;51.988;5.910;2023-08-01T12:43:46;19.40;99.90
47514;DHT22;33951;51.988;5.910;2023-08-01T12:46:11;19.50;99.90
47514;DHT22;33951;51.988;5.910;2023-08-01T12:48:40;19.70;99.90
47514;DHT22;33951;51.988;5.910;2023-08-01T12:51:05;19.80;99.90
47514;DHT22;33951;51.988;5.910;2023-08-01T12:53:31;19.70;99.90
47514;DHT22;33951;51.988;5.910;2023-08-01T12:55:57;19.60;99.90
47514;DHT22;33951;51.988;5.910;2023-08-01T12:58:23;19.80;99.90
47514;DHT22;33951;51.988;5.910;2023-08-01T13:00:48;20.10;99.90
47514;DHT22;33951;51.988;5.910;2023-08-01T13:03:17;20.20;99.90
47514;DHT22;33951;51.988;5.910;2023-08-01T13:05:43;20.20;99.90
47514;DHT22;33951;51.988;5.910;2023-08-01T13:08:09;20.30;99.90
47514;DHT22;33951;51.988;5.910;2023-08-01T13:10:37;20.60;99.90
47514;DHT22;33951;51.988;5.910;2023-08-01T13:13:03;20.50;99.90
47514;DHT22;33951;51.988;5.910;2023-08-01T13:15:35;20.30;99.90
47514;DHT22;33951;51.988;5.910;2023-08-01T13:18:01;20.40;99.90
47514;DHT22;33951;51.988;5.910;2023-08-01T13:20:29;20.70;99.90
47514;DHT22;33951;51.988;5.910;2023-08-01T13:23:10;20.80;99.90
47514;DHT22;33951;51.988;5.910;2023-08-01T13:25:42;20.90;99.90
47514;DHT22;33951;51.988;5.910;2023-08-01T13:28:17;20.90;99.90
47514;DHT22;33951;51.988;5.910;2023-08-01T13:30:45;20.90;99.90
47514;DHT22;33951;51.988;5.910;2023-08-01T13:33:18;21.10;99.90
47514;DHT22;33951;51.988;5.910;2023-08-01T13:35:51;21.40;99.90
47514;DHT22;33951;51.988;5.910;2023-08-01T14:23:40;20.60;99.90
47514;DHT22;33951;51.988;5.910;2023-08-01T14:26:42;20.90;99.90
47514;DHT22;33951;51.988;5.910;2023-08-01T14:36:01;20.90;99.90
47514;DHT22;33951;51.988;5.910;2023-08-01T14:41:49;21.00;99.90
47514;DHT22;33951;51.988;5.910;2023-08-01T14:48:22;21.20;99.90
47514;DHT22;33951;51.988;5.910;2023-08-01T14:54:18;21.60;99.90
47514;DHT22;33951;51.988;5.910;2023-08-01T14:57:35;21.60;99.90
47514;DHT22;33951;51.988;5.910;2023-08-01T15:08:07;20.20;99.90
47514;DHT22;33951;51.988;5.910;2023-08-01T15:10:51;20.10;99.90
47514;DHT22;33951;51.988;5.910;2023-08-01T15:14:06;20.10;99.90
47514;DHT22;33951;51.988;5.910;2023-08-01T15:17:05;20.00;99.90
47514;DHT22;33951;51.988;5.910;2023-08-01T15:23:01;19.70;99.90
47514;DHT22;33951;51.988;5.910;2023-08-01T15:35:07;19.70;99.90
47514;DHT22;33951;51.988;5.910;2023-08-01T15:44:31;19.90;99.90
47514;DHT22;33951;51.988;5.910;2023-08-01T15:46:59;19.90;99.90
47514;DHT22;33951;51.988;5.910;2023-08-01T15:49:31;19.90;99.90
47514;DHT22;33951;51.988;5.910;2023-08-01T15:56:03;19.90;99.90
47514;DHT22;33951;51.988;5.910;2023-08-01T16:01:58;19.80;99.90
47514;DHT22;33951;51.988;5.910;2023-08-01T16:04:33;19.50;99.90
47514;DHT22;33951;51.988;5.910;2023-08-01T16:17:43;18.70;99.90
47514;DHT22;33951;51.988;5.910;2023-08-01T16:20:52;18.70;99.90
47514;DHT22;33951;51.988;5.910;2023-08-01T16:27:02;18.50;99.90
47514;DHT22;33951;51.988;5.910;2023-08-01T16:29:34;18.20;99.90
47514;DHT22;33951;51.988;5.910;2023-08-01T16:32:02;17.70;99.90
47514;DHT22;33951;51.988;5.910;2023-08-01T16:34:35;17.50;99.90
47514;DHT22;33951;51.988;5.910;2023-08-01T16:37:01;17.30;99.90
47514;DHT22;33951;51.988;5.910;2023-08-01T16:39:37;17.00;99.90
47514;DHT22;33951;51.988;5.910;2023-08-01T16:45:40;16.80;99.90
47514;DHT22;33951;51.988;5.910;2023-08-01T16:48:32;16.60;99.90
47514;DHT22;33951;51.988;5.910;2023-08-01T16:51:00;16.50;99.90
47514;DHT22;33951;51.988;5.910;2023-08-01T16:56:54;16.50;99.90
47514;DHT22;33951;51.988;5.910;2023-08-01T17:02:45;16.60;99.90
47514;DHT22;33951;51.988;5.910;2023-08-01T17:05:36;17.00;99.90
47514;DHT22;33951;51.988;5.910;2023-08-01T17:12:26;17.30;99.90
47514;DHT22;33951;51.988;5.910;2023-08-01T17:14:52;17.60;99.90
47514;DHT22;33951;51.988;5.910;2023-08-01T17:17:33;17.90;99.90
47514;DHT22;33951;51.988;5.910;2023-08-01T17:20:27;18.10;99.90
47514;DHT22;33951;51.988;5.910;2023-08-01T17:26:31;18.40;99.90
47514;DHT22;33951;51.988;5.910;2023-08-01T17:33:07;19.10;99.90
47514;DHT22;33951;51.988;5.910;2023-08-01T17:35:43;19.50;99.90
47514;DHT22;33951;51.988;5.910;2023-08-01T17:38:43;19.60;99.90
47514;DHT22;33951;51.988;5.910;2023-08-01T17:41:46;19.70;99.90
47514;DHT22;33951;51.988;5.910;2023-08-01T17:44:50;19.70;99.90
47514;DHT22;33951;51.988;5.910;2023-08-01T17:48:00;20.00;99.90
47514;DHT22;33951;51.988;5.910;2023-08-01T17:51:01;19.90;99.90
47514;DHT22;33951;51.988;5.910;2023-08-01T17:53:54;19.80;99.90
47514;DHT22;33951;51.988;5.910;2023-08-01T18:17:48;19.00;99.90
47514;DHT22;33951;51.988;5.910;2023-08-01T18:38:17;18.70;99.90
47514;DHT22;33951;51.988;5.910;2023-08-01T19:32:53;18.00;99.90
47514;DHT22;33951;51.988;5.910;2023-08-01T19:42:21;18.50;99.90
